createdAt,value
2023-01-26T00:00:28.108Z,0.00
2023-01-26T00:01:29.079Z,0.00
2023-01-26T00:02:28.102Z,0.00
2023-01-26T00:03:28.134Z,0.00
2023-01-26T00:04:28.035Z,0.00
2023-01-26T00:05:28.047Z,0.00
2023-01-26T00:06:28.006Z,0.00
2023-01-26T00:07:29.026Z,0.00
2023-01-26T00:08:29.037Z,0.00
2023-01-26T00:09:27.969Z,0.00
2023-01-26T00:10:28.005Z,0.00
2023-01-26T00:11:27.998Z,0.00
2023-01-26T00:12:27.957Z,0.00
2023-01-26T00:13:27.932Z,0.00
2023-01-26T00:14:28.936Z,0.00
2023-01-26T00:15:27.909Z,0.00
2023-01-26T00:16:28.036Z,0.00
2023-01-26T00:17:28.026Z,0.00
2023-01-26T00:18:27.868Z,0.00
2023-01-26T00:19:27.888Z,0.00
2023-01-26T00:20:28.880Z,0.00
2023-01-26T00:21:27.889Z,0.00
2023-01-26T00:22:27.910Z,0.00
2023-01-26T00:23:27.846Z,0.00
2023-01-26T00:24:27.813Z,0.00
2023-01-26T00:25:27.865Z,0.00
2023-01-26T00:26:27.876Z,0.00
2023-01-26T00:27:27.793Z,0.00
2023-01-26T00:28:27.786Z,0.00
2023-01-26T00:29:27.755Z,0.00
2023-01-26T00:30:27.771Z,0.00
2023-01-26T00:31:27.897Z,0.00
2023-01-26T00:32:27.734Z,0.00
2023-01-26T00:33:27.734Z,0.00
2023-01-26T00:34:27.728Z,0.00
2023-01-26T00:35:27.710Z,0.00
2023-01-26T00:36:28.685Z,0.00
2023-01-26T00:37:28.668Z,0.00
2023-01-26T00:38:27.664Z,0.00
2023-01-26T00:39:27.651Z,0.00
2023-01-26T00:40:27.666Z,0.00
2023-01-26T00:41:27.671Z,0.00
2023-01-26T00:42:27.646Z,0.00
2023-01-26T00:43:27.604Z,0.00
2023-01-26T00:44:27.593Z,0.00
2023-01-26T00:45:28.576Z,0.00
2023-01-26T00:46:27.632Z,0.00
2023-01-26T00:47:28.577Z,0.00
2023-01-26T00:48:27.595Z,0.00
2023-01-26T00:49:28.553Z,0.00
2023-01-26T00:50:27.523Z,0.00
2023-01-26T00:51:27.553Z,0.00
2023-01-26T00:52:27.530Z,0.00
2023-01-26T00:53:28.522Z,0.00
2023-01-26T00:54:27.490Z,0.00
2023-01-26T00:55:27.473Z,0.00
2023-01-26T00:56:27.473Z,0.00
2023-01-26T00:57:28.480Z,0.00
2023-01-26T00:58:27.507Z,0.00
2023-01-26T00:59:27.427Z,0.00
2023-01-26T01:00:28.431Z,0.00
2023-01-26T01:01:27.435Z,0.00
2023-01-26T01:02:27.404Z,0.00
2023-01-26T01:03:27.410Z,0.00
2023-01-26T01:04:27.407Z,0.00
2023-01-26T01:05:27.366Z,0.00
2023-01-26T01:06:28.411Z,0.00
2023-01-26T01:07:27.335Z,0.00
2023-01-26T01:08:27.340Z,0.00
2023-01-26T01:09:27.354Z,0.00
2023-01-26T01:10:27.327Z,0.00
2023-01-26T01:11:27.300Z,0.00
2023-01-26T01:12:27.303Z,0.00
2023-01-26T01:13:27.296Z,0.00
2023-01-26T01:14:27.297Z,0.00
2023-01-26T01:15:27.289Z,0.00
2023-01-26T01:16:27.334Z,0.00
2023-01-26T01:17:27.226Z,0.00
2023-01-26T01:18:27.234Z,0.00
2023-01-26T01:19:27.221Z,0.00
2023-01-26T01:20:27.228Z,0.00
2023-01-26T01:21:28.197Z,0.00
2023-01-26T01:22:27.196Z,0.00
2023-01-26T01:23:27.173Z,0.00
2023-01-26T01:24:27.144Z,0.00
2023-01-26T01:25:27.171Z,0.00
2023-01-26T01:26:28.114Z,0.00
2023-01-26T01:27:27.111Z,0.00
2023-01-26T01:28:27.112Z,0.00
2023-01-26T01:29:27.099Z,0.00
2023-01-26T01:30:28.120Z,0.00
2023-01-26T01:31:27.196Z,0.00
2023-01-26T01:32:27.080Z,0.00
2023-01-26T01:33:27.054Z,0.00
2023-01-26T01:34:27.056Z,0.00
2023-01-26T01:35:27.044Z,0.00
2023-01-26T01:36:27.058Z,0.00
2023-01-26T01:37:27.036Z,0.00
2023-01-26T01:38:27.016Z,0.00
2023-01-26T01:39:27.030Z,0.00
2023-01-26T01:40:26.981Z,0.00
2023-01-26T01:41:26.999Z,0.00
2023-01-26T01:42:27.000Z,0.00
2023-01-26T01:43:26.959Z,0.00
2023-01-26T01:44:27.945Z,0.00
2023-01-26T01:45:26.982Z,0.00
2023-01-26T01:46:26.972Z,0.00
2023-01-26T01:47:26.912Z,0.00
2023-01-26T01:48:26.897Z,0.00
2023-01-26T01:49:27.882Z,0.00
2023-01-26T01:50:26.891Z,0.00
2023-01-26T01:51:26.852Z,0.00
2023-01-26T01:52:26.851Z,0.00
2023-01-26T01:53:26.919Z,0.00
2023-01-26T01:54:26.835Z,0.00
2023-01-26T01:55:26.837Z,0.00
2023-01-26T01:56:26.831Z,0.00
2023-01-26T01:57:26.797Z,0.00
2023-01-26T01:58:26.792Z,0.00
2023-01-26T01:59:26.797Z,0.00
2023-01-26T02:00:26.797Z,0.00
2023-01-26T02:01:26.747Z,0.00
2023-01-26T02:02:26.740Z,0.00
2023-01-26T02:03:26.712Z,0.00
2023-01-26T02:04:26.810Z,0.00
2023-01-26T02:05:26.689Z,0.00
2023-01-26T02:06:26.689Z,0.00
2023-01-26T02:07:26.750Z,0.00
2023-01-26T02:08:27.686Z,0.00
2023-01-26T02:09:26.682Z,0.00
2023-01-26T02:10:26.673Z,0.00
2023-01-26T02:11:26.649Z,0.00
2023-01-26T02:12:27.626Z,0.00
2023-01-26T02:13:26.610Z,0.00
2023-01-26T02:14:26.601Z,0.00
2023-01-26T02:15:26.618Z,0.00
2023-01-26T02:16:26.633Z,0.00
2023-01-26T02:17:27.609Z,0.00
2023-01-26T02:18:27.588Z,0.00
2023-01-26T02:19:26.545Z,0.00
2023-01-26T02:20:27.547Z,0.00
2023-01-26T02:21:26.956Z,0.00
2023-01-26T02:22:26.563Z,0.00
2023-01-26T02:23:26.531Z,0.00
2023-01-26T02:24:26.561Z,0.00
2023-01-26T02:25:26.515Z,0.00
2023-01-26T02:26:27.504Z,0.00
2023-01-26T02:27:26.465Z,0.00
2023-01-26T02:28:26.491Z,0.00
2023-01-26T02:29:26.461Z,0.00
2023-01-26T02:30:26.451Z,0.00
2023-01-26T02:31:26.476Z,0.00
2023-01-26T02:32:26.416Z,0.00
2023-01-26T02:33:26.412Z,0.00
2023-01-26T02:34:26.459Z,0.00
2023-01-26T02:35:26.402Z,0.00
2023-01-26T02:36:26.420Z,0.00
2023-01-26T02:37:26.358Z,0.00
2023-01-26T02:38:26.397Z,0.00
2023-01-26T02:39:26.359Z,0.00
2023-01-26T02:40:26.335Z,0.00
2023-01-26T02:41:27.342Z,0.00
2023-01-26T02:42:27.294Z,0.00
2023-01-26T02:43:26.285Z,0.00
2023-01-26T02:44:26.380Z,0.00
2023-01-26T02:45:26.270Z,0.00
2023-01-26T02:46:26.278Z,0.00
2023-01-26T02:47:26.263Z,0.00
2023-01-26T02:48:27.229Z,0.00
2023-01-26T02:49:26.210Z,0.00
2023-01-26T02:50:26.275Z,0.00
2023-01-26T02:51:26.199Z,0.00
2023-01-26T02:52:26.182Z,0.00
2023-01-26T02:53:26.207Z,0.00
2023-01-26T02:54:26.163Z,0.00
2023-01-26T02:55:26.296Z,0.00
2023-01-26T02:56:26.156Z,0.00
2023-01-26T02:57:26.144Z,0.00
2023-01-26T02:58:26.167Z,0.00
2023-01-26T02:59:26.149Z,0.00
2023-01-26T03:00:26.129Z,0.00
2023-01-26T03:01:26.127Z,0.00
2023-01-26T03:02:27.070Z,0.00
2023-01-26T03:03:26.084Z,0.00
2023-01-26T03:04:26.083Z,0.00
2023-01-26T03:05:27.031Z,0.00
2023-01-26T03:06:26.063Z,0.00
2023-01-26T03:07:26.041Z,0.00
2023-01-26T03:08:26.023Z,0.00
2023-01-26T03:09:25.999Z,0.00
2023-01-26T03:10:26.032Z,0.00
2023-01-26T03:11:26.978Z,0.00
2023-01-26T03:12:26.968Z,0.00
2023-01-26T03:13:25.953Z,0.00
2023-01-26T03:14:25.950Z,0.00
2023-01-26T03:15:25.952Z,0.00
2023-01-26T03:16:25.963Z,0.00
2023-01-26T03:17:25.931Z,0.00
2023-01-26T03:18:26.930Z,0.00
2023-01-26T03:19:25.890Z,0.00
2023-01-26T03:20:25.877Z,0.00
2023-01-26T03:21:25.885Z,0.00
2023-01-26T03:22:25.882Z,0.00
2023-01-26T03:23:25.873Z,0.00
2023-01-26T03:24:25.860Z,0.00
2023-01-26T03:25:25.826Z,0.00
2023-01-26T03:26:25.817Z,0.00
2023-01-26T03:27:25.814Z,0.00
2023-01-26T03:28:25.802Z,0.00
2023-01-26T03:29:25.813Z,0.00
2023-01-26T03:30:25.859Z,0.00
2023-01-26T03:31:25.977Z,0.00
2023-01-26T03:32:25.758Z,0.00
2023-01-26T03:33:25.754Z,0.00
2023-01-26T03:34:25.761Z,0.00
2023-01-26T03:35:26.726Z,0.00
2023-01-26T03:36:25.903Z,0.00
2023-01-26T03:37:25.750Z,0.00
2023-01-26T03:38:25.730Z,0.00
2023-01-26T03:39:25.751Z,0.00
2023-01-26T03:40:25.690Z,0.00
2023-01-26T03:41:25.695Z,0.00
2023-01-26T03:42:25.649Z,0.00
2023-01-26T03:43:25.640Z,0.00
2023-01-26T03:44:25.639Z,0.00
2023-01-26T03:45:33.317Z,0.00
2023-01-26T03:46:26.622Z,0.00
2023-01-26T03:47:25.586Z,0.00
2023-01-26T03:48:25.601Z,0.00
2023-01-26T03:49:25.568Z,0.00
2023-01-26T03:50:25.548Z,0.00
2023-01-26T03:51:26.572Z,0.00
2023-01-26T03:52:26.521Z,0.00
2023-01-26T03:53:25.513Z,0.00
2023-01-26T03:54:25.549Z,0.00
2023-01-26T03:55:25.496Z,0.00
2023-01-26T03:56:26.521Z,0.00
2023-01-26T03:57:25.510Z,0.00
2023-01-26T03:58:25.502Z,0.00
2023-01-26T03:59:25.457Z,0.00
2023-01-26T04:00:25.452Z,0.00
2023-01-26T04:01:25.458Z,0.00
2023-01-26T04:02:25.469Z,0.00
2023-01-26T04:03:25.428Z,0.00
2023-01-26T04:04:25.390Z,0.00
2023-01-26T04:05:25.373Z,0.00
2023-01-26T04:06:25.387Z,0.00
2023-01-26T04:07:26.892Z,0.00
2023-01-26T04:08:25.366Z,0.00
2023-01-26T04:09:25.383Z,0.00
2023-01-26T04:10:25.355Z,0.00
2023-01-26T04:11:25.321Z,0.00
2023-01-26T04:12:25.312Z,0.00
2023-01-26T04:13:25.285Z,0.00
2023-01-26T04:14:25.282Z,0.00
2023-01-26T04:15:25.316Z,0.00
2023-01-26T04:16:25.414Z,0.00
2023-01-26T04:17:25.255Z,0.00
2023-01-26T04:18:25.259Z,0.00
2023-01-26T04:19:25.227Z,0.00
2023-01-26T04:20:26.232Z,0.00
2023-01-26T04:21:25.248Z,0.00
2023-01-26T04:22:25.200Z,0.00
2023-01-26T04:23:25.414Z,0.00
2023-01-26T04:24:25.311Z,0.00
2023-01-26T04:25:25.161Z,0.00
2023-01-26T04:26:25.168Z,0.00
2023-01-26T04:27:25.137Z,0.00
2023-01-26T04:28:25.143Z,0.00
2023-01-26T04:29:25.158Z,0.00
2023-01-26T04:30:25.184Z,0.00
2023-01-26T04:31:26.146Z,0.00
2023-01-26T04:32:26.084Z,0.00
2023-01-26T04:33:26.093Z,0.00
2023-01-26T04:34:25.093Z,0.00
2023-01-26T04:35:25.063Z,0.00
2023-01-26T04:36:25.050Z,0.00
2023-01-26T04:37:25.046Z,0.00
2023-01-26T04:38:25.048Z,0.00
2023-01-26T04:39:25.052Z,0.00
2023-01-26T04:40:25.019Z,0.00
2023-01-26T04:41:25.015Z,0.00
2023-01-26T04:42:26.020Z,0.00
2023-01-26T04:43:24.984Z,0.00
2023-01-26T04:44:25.975Z,0.00
2023-01-26T04:45:24.958Z,0.00
2023-01-26T04:46:24.954Z,0.00
2023-01-26T04:47:24.956Z,0.00
2023-01-26T04:48:25.928Z,0.00
2023-01-26T04:49:24.920Z,0.00
2023-01-26T04:50:24.903Z,0.00
2023-01-26T04:51:24.869Z,0.00
2023-01-26T04:52:25.896Z,0.00
2023-01-26T04:53:24.892Z,0.00
2023-01-26T04:54:24.854Z,0.00
2023-01-26T04:55:24.850Z,0.00
2023-01-26T04:56:24.872Z,0.00
2023-01-26T04:57:24.821Z,0.00
2023-01-26T04:58:24.811Z,0.00
2023-01-26T04:59:24.831Z,0.00
2023-01-26T05:00:24.784Z,0.00
2023-01-26T05:01:24.883Z,0.00
2023-01-26T05:02:24.763Z,0.00
2023-01-26T05:03:24.777Z,0.00
2023-01-26T05:04:24.851Z,0.00
2023-01-26T05:05:24.749Z,0.00
2023-01-26T05:06:24.735Z,0.00
2023-01-26T05:07:24.728Z,0.00
2023-01-26T05:08:24.698Z,0.00
2023-01-26T05:09:24.705Z,0.00
2023-01-26T05:10:24.707Z,0.00
2023-01-26T05:11:24.655Z,0.00
2023-01-26T05:12:25.679Z,0.00
2023-01-26T05:13:24.670Z,0.00
2023-01-26T05:14:24.656Z,0.00
2023-01-26T05:15:24.633Z,0.00
2023-01-26T05:16:24.644Z,0.00
2023-01-26T05:17:24.636Z,0.00
2023-01-26T05:18:24.613Z,0.00
2023-01-26T05:19:24.599Z,0.00
2023-01-26T05:20:24.591Z,0.00
2023-01-26T05:21:24.544Z,0.00
2023-01-26T05:22:24.558Z,0.00
2023-01-26T05:23:24.554Z,0.00
2023-01-26T05:24:24.601Z,0.00
2023-01-26T05:25:24.534Z,0.00
2023-01-26T05:26:24.516Z,0.00
2023-01-26T05:27:24.488Z,0.00
2023-01-26T05:28:24.507Z,0.00
2023-01-26T05:29:24.470Z,0.00
2023-01-26T05:30:24.489Z,0.00
2023-01-26T05:31:24.522Z,0.00
2023-01-26T05:32:24.434Z,0.00
2023-01-26T05:33:24.464Z,0.00
2023-01-26T05:34:24.431Z,0.00
2023-01-26T05:35:24.419Z,0.00
2023-01-26T05:36:24.400Z,0.00
2023-01-26T05:37:24.385Z,0.00
2023-01-26T05:38:24.399Z,0.00
2023-01-26T05:39:24.365Z,0.00
2023-01-26T05:40:24.394Z,0.00
2023-01-26T05:41:24.349Z,0.00
2023-01-26T05:42:25.339Z,0.00
2023-01-26T05:43:25.323Z,0.00
2023-01-26T05:44:24.358Z,0.00
2023-01-26T05:45:24.335Z,0.00
2023-01-26T05:46:24.307Z,0.00
2023-01-26T05:47:24.278Z,0.00
2023-01-26T05:48:25.273Z,0.00
2023-01-26T05:49:24.259Z,0.00
2023-01-26T05:50:24.248Z,0.00
2023-01-26T05:51:24.260Z,0.00
2023-01-26T05:52:24.224Z,0.00
2023-01-26T05:53:24.226Z,0.00
2023-01-26T05:54:24.230Z,0.00
2023-01-26T05:55:25.227Z,0.00
2023-01-26T05:56:24.201Z,0.00
2023-01-26T05:57:24.181Z,0.00
2023-01-26T05:58:24.201Z,0.00
2023-01-26T05:59:24.157Z,0.00
2023-01-26T06:00:24.125Z,0.00
2023-01-26T06:01:24.123Z,0.00
2023-01-26T06:02:24.213Z,0.00
2023-01-26T06:03:24.116Z,0.00
2023-01-26T06:04:24.180Z,0.00
2023-01-26T06:05:24.822Z,0.00
2023-01-26T06:06:24.082Z,0.00
2023-01-26T06:07:24.077Z,0.00
2023-01-26T06:08:24.080Z,0.00
2023-01-26T06:09:27.315Z,0.00
2023-01-26T06:10:25.037Z,0.00
2023-01-26T06:11:24.130Z,0.00
2023-01-26T06:12:24.036Z,0.00
2023-01-26T06:13:23.985Z,0.00
2023-01-26T06:14:23.989Z,0.00
2023-01-26T06:15:23.957Z,0.00
2023-01-26T06:16:23.974Z,0.00
2023-01-26T06:17:23.976Z,0.00
2023-01-26T06:18:24.000Z,0.00
2023-01-26T06:19:23.927Z,0.00
2023-01-26T06:20:23.925Z,0.00
2023-01-26T06:21:23.903Z,0.00
2023-01-26T06:22:23.900Z,0.00
2023-01-26T06:23:23.887Z,0.00
2023-01-26T06:24:24.927Z,0.00
2023-01-26T06:25:23.878Z,0.00
2023-01-26T06:26:24.853Z,0.00
2023-01-26T06:27:23.835Z,0.00
2023-01-26T06:28:23.843Z,0.00
2023-01-26T06:29:23.839Z,0.00
2023-01-26T06:30:23.799Z,0.00
2023-01-26T06:31:24.946Z,0.00
2023-01-26T06:32:23.784Z,0.00
2023-01-26T06:33:24.788Z,0.00
2023-01-26T06:34:23.804Z,0.00
2023-01-26T06:35:23.741Z,0.00
2023-01-26T06:36:23.778Z,0.00
2023-01-26T06:37:23.737Z,0.00
2023-01-26T06:38:23.724Z,0.00
2023-01-26T06:39:23.723Z,0.00
2023-01-26T06:40:23.682Z,0.00
2023-01-26T06:41:23.682Z,0.00
2023-01-26T06:42:23.725Z,0.00
2023-01-26T06:43:23.668Z,4.00
2023-01-26T06:44:23.678Z,4.00
2023-01-26T06:45:23.652Z,0.00
2023-01-26T06:46:24.652Z,0.00
2023-01-26T06:47:23.625Z,4.00
2023-01-26T06:48:23.654Z,0.00
2023-01-26T06:49:23.611Z,4.00
2023-01-26T06:50:24.620Z,4.00
2023-01-26T06:51:23.577Z,4.00
2023-01-26T06:52:23.590Z,4.00
2023-01-26T06:53:23.558Z,4.00
2023-01-26T06:54:23.567Z,4.00
2023-01-26T06:55:23.594Z,4.00
2023-01-26T06:56:23.534Z,4.00
2023-01-26T06:57:23.519Z,4.00
2023-01-26T06:58:24.487Z,4.00
2023-01-26T06:59:23.527Z,4.00
2023-01-26T07:00:24.512Z,8.00
2023-01-26T07:01:23.557Z,8.00
2023-01-26T07:02:24.514Z,8.00
2023-01-26T07:03:23.458Z,8.00
2023-01-26T07:04:23.464Z,4.00
2023-01-26T07:05:23.427Z,8.00
2023-01-26T07:06:24.473Z,8.00
2023-01-26T07:07:23.418Z,12.00
2023-01-26T07:08:23.399Z,8.00
2023-01-26T07:09:23.395Z,12.00
2023-01-26T07:10:24.375Z,12.00
2023-01-26T07:11:23.348Z,16.00
2023-01-26T07:12:23.364Z,16.00
2023-01-26T07:13:23.351Z,20.00
2023-01-26T07:14:23.347Z,24.00
2023-01-26T07:15:23.332Z,24.00
2023-01-26T07:16:23.349Z,24.00
2023-01-26T07:17:24.284Z,28.00
2023-01-26T07:18:24.277Z,32.00
2023-01-26T07:19:24.285Z,32.00
2023-01-26T07:20:23.259Z,32.00
2023-01-26T07:21:23.297Z,36.00
2023-01-26T07:22:23.263Z,36.00
2023-01-26T07:23:23.282Z,40.00
2023-01-26T07:24:24.253Z,44.00
2023-01-26T07:25:23.212Z,44.00
2023-01-26T07:26:23.207Z,44.00
2023-01-26T07:27:23.203Z,48.00
2023-01-26T07:28:23.188Z,52.00
2023-01-26T07:29:23.195Z,56.00
2023-01-26T07:30:23.144Z,52.00
2023-01-26T07:31:23.335Z,52.00
2023-01-26T07:32:23.172Z,52.00
2023-01-26T07:33:23.136Z,56.00
2023-01-26T07:34:24.104Z,52.00
2023-01-26T07:35:23.122Z,56.00
2023-01-26T07:36:24.100Z,56.00
2023-01-26T07:37:24.097Z,60.00
2023-01-26T07:38:24.092Z,60.00
2023-01-26T07:39:23.091Z,60.00
2023-01-26T07:40:24.077Z,60.00
2023-01-26T07:41:23.031Z,60.00
2023-01-26T07:42:22.998Z,56.00
2023-01-26T07:43:23.072Z,52.00
2023-01-26T07:44:23.995Z,52.00
2023-01-26T07:45:22.982Z,52.00
2023-01-26T07:46:23.014Z,52.00
2023-01-26T07:47:22.977Z,52.00
2023-01-26T07:48:22.964Z,52.00
2023-01-26T07:49:22.959Z,52.00
2023-01-26T07:50:22.953Z,52.00
2023-01-26T07:51:22.915Z,48.00
2023-01-26T07:52:23.903Z,52.00
2023-01-26T07:53:23.184Z,52.00
2023-01-26T07:54:22.927Z,52.00
2023-01-26T07:55:22.868Z,52.00
2023-01-26T07:56:22.902Z,52.00
2023-01-26T07:57:23.858Z,52.00
2023-01-26T07:58:22.860Z,64.00
2023-01-26T07:59:22.832Z,68.00
2023-01-26T08:00:22.852Z,80.00
2023-01-26T08:01:23.861Z,88.00
2023-01-26T08:02:22.787Z,96.00
2023-01-26T08:03:22.793Z,96.00
2023-01-26T08:04:23.815Z,92.00
2023-01-26T08:05:22.761Z,88.00
2023-01-26T08:06:23.069Z,84.00
2023-01-26T08:07:22.751Z,80.00
2023-01-26T08:08:22.731Z,76.00
2023-01-26T08:09:22.721Z,68.00
2023-01-26T08:10:22.736Z,68.00
2023-01-26T08:11:22.692Z,60.00
2023-01-26T08:12:23.719Z,56.00
2023-01-26T08:13:34.484Z,56.00
2023-01-26T08:14:23.715Z,56.00
2023-01-26T08:15:23.673Z,52.00
2023-01-26T08:16:22.715Z,52.00
2023-01-26T08:17:22.636Z,48.00
2023-01-26T08:18:22.627Z,44.00
2023-01-26T08:19:22.644Z,44.00
2023-01-26T08:20:22.650Z,44.00
2023-01-26T08:21:22.591Z,44.00
2023-01-26T08:22:22.593Z,40.00
2023-01-26T08:23:22.589Z,40.00
2023-01-26T08:24:22.650Z,40.00
2023-01-26T08:25:23.542Z,36.00
2023-01-26T08:26:22.607Z,32.00
2023-01-26T08:27:22.547Z,28.00
2023-01-26T08:28:23.527Z,28.00
2023-01-26T08:29:23.521Z,24.00
2023-01-26T08:30:22.522Z,24.00
2023-01-26T08:31:23.561Z,24.00
2023-01-26T08:32:22.454Z,20.00
2023-01-26T08:33:22.457Z,20.00
2023-01-26T08:34:23.439Z,20.00
2023-01-26T08:35:22.457Z,20.00
2023-01-26T08:36:23.046Z,20.00
2023-01-26T08:37:22.418Z,20.00
2023-01-26T08:38:22.392Z,20.00
2023-01-26T08:39:23.421Z,20.00
2023-01-26T08:40:23.377Z,20.00
2023-01-26T08:41:22.385Z,20.00
2023-01-26T08:42:22.890Z,20.00
2023-01-26T08:43:22.346Z,20.00
2023-01-26T08:44:22.378Z,20.00
2023-01-26T08:45:22.330Z,20.00
2023-01-26T08:46:22.317Z,20.00
2023-01-26T08:47:22.342Z,24.00
2023-01-26T08:48:22.306Z,24.00
2023-01-26T08:49:22.284Z,24.00
2023-01-26T08:50:22.326Z,24.00
2023-01-26T08:51:22.269Z,24.00
2023-01-26T08:52:22.244Z,28.00
2023-01-26T08:53:22.269Z,28.00
2023-01-26T08:54:22.255Z,28.00
2023-01-26T08:55:22.204Z,28.00
2023-01-26T08:56:22.229Z,28.00
2023-01-26T08:57:22.177Z,28.00
2023-01-26T08:58:23.223Z,32.00
2023-01-26T08:59:22.206Z,28.00
2023-01-26T09:00:22.151Z,36.00
2023-01-26T09:01:22.181Z,40.00
2023-01-26T09:02:22.247Z,44.00
2023-01-26T09:03:22.214Z,44.00
2023-01-26T09:04:22.149Z,40.00
2023-01-26T09:05:22.137Z,44.00
2023-01-26T09:06:23.077Z,44.00
2023-01-26T09:07:22.081Z,44.00
2023-01-26T09:08:22.137Z,44.00
2023-01-26T09:09:22.064Z,48.00
2023-01-26T09:10:22.053Z,52.00
2023-01-26T09:11:23.038Z,52.00
2023-01-26T09:12:22.041Z,56.00
2023-01-26T09:13:22.029Z,60.00
2023-01-26T09:14:22.014Z,56.00
2023-01-26T09:15:22.013Z,56.00
2023-01-26T09:16:22.197Z,56.00
2023-01-26T09:17:22.006Z,56.00
2023-01-26T09:18:21.949Z,56.00
2023-01-26T09:19:22.942Z,56.00
2023-01-26T09:20:21.947Z,56.00
2023-01-26T09:21:22.940Z,52.00
2023-01-26T09:22:21.924Z,48.00
2023-01-26T09:23:21.931Z,48.00
2023-01-26T09:24:22.033Z,44.00
2023-01-26T09:25:21.878Z,48.00
2023-01-26T09:26:21.920Z,52.00
2023-01-26T09:27:21.863Z,56.00
2023-01-26T09:28:21.872Z,60.00
2023-01-26T09:29:21.966Z,64.00
2023-01-26T09:30:21.958Z,60.00
2023-01-26T09:31:21.923Z,60.00
2023-01-26T09:32:21.795Z,52.00
2023-01-26T09:33:22.837Z,44.00
2023-01-26T09:34:22.798Z,40.00
2023-01-26T09:35:21.807Z,36.00
2023-01-26T09:36:21.752Z,32.00
2023-01-26T09:37:21.760Z,28.00
2023-01-26T09:38:21.759Z,32.00
2023-01-26T09:39:21.752Z,28.00
2023-01-26T09:40:21.875Z,32.00
2023-01-26T09:41:21.718Z,36.00
2023-01-26T09:42:22.682Z,40.00
2023-01-26T09:43:21.688Z,44.00
2023-01-26T09:44:21.677Z,48.00
2023-01-26T09:45:21.677Z,56.00
2023-01-26T09:46:21.755Z,52.00
2023-01-26T09:47:21.642Z,52.00
2023-01-26T09:48:23.613Z,56.00
2023-01-26T09:49:21.640Z,52.00
2023-01-26T09:50:21.759Z,56.00
2023-01-26T09:51:21.614Z,56.00
2023-01-26T09:52:21.631Z,60.00
2023-01-26T09:53:22.574Z,64.00
2023-01-26T09:54:21.561Z,68.00
2023-01-26T09:55:21.573Z,76.00
2023-01-26T09:56:21.566Z,80.00
2023-01-26T09:57:22.574Z,84.00
2023-01-26T09:58:21.517Z,88.00
2023-01-26T09:59:21.515Z,92.00
2023-01-26T10:00:21.589Z,88.00
2023-01-26T10:01:21.503Z,88.00
2023-01-26T10:02:21.696Z,84.00
2023-01-26T10:03:21.477Z,80.00
2023-01-26T10:04:21.460Z,76.00
2023-01-26T10:05:21.459Z,80.00
2023-01-26T10:06:21.445Z,80.00
2023-01-26T10:07:22.432Z,76.00
2023-01-26T10:08:21.464Z,80.00
2023-01-26T10:09:21.430Z,80.00
2023-01-26T10:10:21.390Z,80.00
2023-01-26T10:11:21.390Z,76.00
2023-01-26T10:12:21.370Z,76.00
2023-01-26T10:13:21.356Z,76.00
2023-01-26T10:14:22.370Z,76.00
2023-01-26T10:15:21.366Z,76.00
2023-01-26T10:16:21.320Z,80.00
2023-01-26T10:17:21.302Z,88.00
2023-01-26T10:18:21.349Z,100.00
2023-01-26T10:19:21.318Z,104.00
2023-01-26T10:20:21.303Z,108.00
2023-01-26T10:21:21.306Z,104.00
2023-01-26T10:22:21.259Z,104.00
2023-01-26T10:23:21.264Z,104.00
2023-01-26T10:24:21.298Z,108.00
2023-01-26T10:25:21.271Z,112.00
2023-01-26T10:26:21.223Z,112.00
2023-01-26T10:27:21.206Z,112.00
2023-01-26T10:28:21.244Z,108.00
2023-01-26T10:29:21.179Z,104.00
2023-01-26T10:30:21.284Z,100.00
2023-01-26T10:31:21.319Z,100.00
2023-01-26T10:32:22.142Z,100.00
2023-01-26T10:33:22.127Z,96.00
2023-01-26T10:34:21.147Z,100.00
2023-01-26T10:35:21.143Z,104.00
2023-01-26T10:36:21.143Z,108.00
2023-01-26T10:37:21.101Z,108.00
2023-01-26T10:38:21.086Z,104.00
2023-01-26T10:39:21.072Z,96.00
2023-01-26T10:40:22.061Z,92.00
2023-01-26T10:41:21.063Z,84.00
2023-01-26T10:42:22.068Z,92.00
2023-01-26T10:43:21.038Z,96.00
2023-01-26T10:44:21.035Z,100.00
2023-01-26T10:45:21.049Z,104.00
2023-01-26T10:46:21.012Z,108.00
2023-01-26T10:47:22.008Z,116.00
2023-01-26T10:48:20.961Z,128.00
2023-01-26T10:49:20.988Z,136.00
2023-01-26T10:50:21.001Z,140.00
2023-01-26T10:51:20.926Z,140.00
2023-01-26T10:52:21.960Z,132.00
2023-01-26T10:53:20.937Z,132.00
2023-01-26T10:54:20.911Z,128.00
2023-01-26T10:55:20.903Z,120.00
2023-01-26T10:56:20.877Z,120.00
2023-01-26T10:57:20.868Z,120.00
2023-01-26T10:58:21.896Z,116.00
2023-01-26T10:59:20.863Z,112.00
2023-01-26T11:00:20.841Z,108.00
2023-01-26T11:01:21.684Z,104.00
2023-01-26T11:02:21.831Z,112.00
2023-01-26T11:03:21.825Z,116.00
2023-01-26T11:04:20.861Z,116.00
2023-01-26T11:05:20.816Z,116.00
2023-01-26T11:06:20.789Z,108.00
2023-01-26T11:07:20.792Z,104.00
2023-01-26T11:08:20.754Z,100.00
2023-01-26T11:09:20.745Z,104.00
2023-01-26T11:10:20.728Z,108.00
2023-01-26T11:11:21.765Z,112.00
2023-01-26T11:12:20.715Z,112.00
2023-01-26T11:13:20.772Z,116.00
2023-01-26T11:14:20.684Z,112.00
2023-01-26T11:15:21.699Z,112.00
2023-01-26T11:16:20.761Z,108.00
2023-01-26T11:17:20.670Z,100.00
2023-01-26T11:18:20.657Z,92.00
2023-01-26T11:19:21.036Z,88.00
2023-01-26T11:20:21.622Z,84.00
2023-01-26T11:21:20.621Z,80.00
2023-01-26T11:22:20.638Z,80.00
2023-01-26T11:23:20.608Z,76.00
2023-01-26T11:24:20.698Z,72.00
2023-01-26T11:25:20.590Z,72.00
2023-01-26T11:26:20.577Z,72.00
2023-01-26T11:27:20.566Z,76.00
2023-01-26T11:28:20.554Z,76.00
2023-01-26T11:29:20.530Z,80.00
2023-01-26T11:30:20.522Z,80.00
2023-01-26T11:31:20.516Z,80.00
2023-01-26T11:32:20.492Z,76.00
2023-01-26T11:33:20.508Z,80.00
2023-01-26T11:34:21.491Z,80.00
2023-01-26T11:35:20.462Z,80.00
2023-01-26T11:36:20.463Z,76.00
2023-01-26T11:37:20.464Z,76.00
2023-01-26T11:38:20.430Z,80.00
2023-01-26T11:39:20.419Z,76.00
2023-01-26T11:40:20.427Z,80.00
2023-01-26T11:41:20.414Z,76.00
2023-01-26T11:42:21.379Z,76.00
2023-01-26T11:43:21.383Z,76.00
2023-01-26T11:44:20.372Z,72.00
2023-01-26T11:45:20.363Z,72.00
2023-01-26T11:46:20.339Z,68.00
2023-01-26T11:47:20.348Z,68.00
2023-01-26T11:48:21.303Z,68.00
2023-01-26T11:49:20.310Z,68.00
2023-01-26T11:50:20.279Z,64.00
2023-01-26T11:51:20.296Z,64.00
2023-01-26T11:52:20.268Z,68.00
2023-01-26T11:53:20.272Z,64.00
2023-01-26T11:54:20.333Z,64.00
2023-01-26T11:55:21.255Z,60.00
2023-01-26T11:56:20.221Z,60.00
2023-01-26T11:57:20.252Z,60.00
2023-01-26T11:58:20.239Z,60.00
2023-01-26T11:59:20.221Z,60.00
2023-01-26T12:00:30.168Z,60.00
2023-01-26T12:01:21.186Z,60.00
2023-01-26T12:02:20.249Z,60.00
2023-01-26T12:03:20.168Z,56.00
2023-01-26T12:04:20.170Z,56.00
2023-01-26T12:05:20.153Z,56.00
2023-01-26T12:06:20.170Z,60.00
2023-01-26T12:07:20.099Z,56.00
2023-01-26T12:08:20.113Z,56.00
2023-01-26T12:09:20.095Z,56.00
2023-01-26T12:10:20.111Z,56.00
2023-01-26T12:11:20.084Z,56.00
2023-01-26T12:12:20.056Z,56.00
2023-01-26T12:13:20.039Z,56.00
2023-01-26T12:14:20.059Z,56.00
2023-01-26T12:15:20.025Z,60.00
2023-01-26T12:16:20.087Z,64.00
2023-01-26T12:17:20.086Z,60.00
2023-01-26T12:18:19.974Z,60.00
2023-01-26T12:19:20.963Z,60.00
2023-01-26T12:20:21.355Z,64.00
2023-01-26T12:21:19.982Z,64.00
2023-01-26T12:22:19.982Z,60.00
2023-01-26T12:23:19.955Z,60.00
2023-01-26T12:24:40.844Z,60.00
2023-01-26T12:25:20.955Z,60.00
2023-01-26T12:26:19.927Z,56.00
2023-01-26T12:27:19.891Z,60.00
2023-01-26T12:28:19.885Z,60.00
2023-01-26T12:29:19.864Z,52.00
2023-01-26T12:30:19.918Z,52.00
2023-01-26T12:31:20.001Z,52.00
2023-01-26T12:32:20.826Z,56.00
2023-01-26T12:33:19.848Z,56.00
2023-01-26T12:34:19.801Z,52.00
2023-01-26T12:35:19.840Z,52.00
2023-01-26T12:36:19.804Z,48.00
2023-01-26T12:37:19.817Z,44.00
2023-01-26T12:38:19.767Z,44.00
2023-01-26T12:39:19.782Z,48.00
2023-01-26T12:40:19.783Z,44.00
2023-01-26T12:41:19.798Z,48.00
2023-01-26T12:42:19.749Z,48.00
2023-01-26T12:43:19.716Z,48.00
2023-01-26T12:44:19.727Z,44.00
2023-01-26T12:45:19.711Z,40.00
2023-01-26T12:46:20.758Z,44.00
2023-01-26T12:47:19.671Z,44.00
2023-01-26T12:48:19.660Z,40.00
2023-01-26T12:49:19.682Z,40.00
2023-01-26T12:50:19.645Z,36.00
2023-01-26T12:51:19.658Z,40.00
2023-01-26T12:52:20.627Z,36.00
2023-01-26T12:53:19.606Z,36.00
2023-01-26T12:54:19.608Z,36.00
2023-01-26T12:55:20.592Z,36.00
2023-01-26T12:56:19.582Z,40.00
2023-01-26T12:57:19.562Z,40.00
2023-01-26T12:58:20.564Z,36.00
2023-01-26T12:59:38.661Z,36.00
2023-01-26T13:00:20.548Z,32.00
2023-01-26T13:01:19.574Z,36.00
2023-01-26T13:02:19.712Z,36.00
2023-01-26T13:03:19.519Z,32.00
2023-01-26T13:04:20.482Z,36.00